Time;durP1;ratioP1;P1;durP2;ratioP2;P2;SDS_P1;SDS_P2;PMS_P1;PMS_P2;Temp;Humidity;BMP_temperature;BMP_pressure;BME280_temperature;BME280_humidity;BME280_pressure;Samples;Min_cycle;Max_cycle;Signal;HPM_P1;HPM_P2
2021/05/01 00:02:25;;;;;;;19.17;17.13;;;10.70;1.00;;;;;;5029535;28;20538;-84
2021/05/01 00:05:07;;;;;;;18.00;16.08;;;10.60;1.00;;;;;;5029165;28;20128;-83
2021/05/01 00:07:34;;;;;;;20.40;17.40;;;10.60;1.00;;;;;;5028358;28;20026;-84
2021/05/01 00:10:01;;;;;;;19.40;16.90;;;10.50;1.00;;;;;;5029750;28;20026;-83
2021/05/01 00:12:30;;;;;;;18.35;16.40;;;10.60;1.00;;;;;;5031016;28;20028;-84
2021/05/01 00:14:56;;;;;;;19.05;17.05;;;10.60;1.00;;;;;;5031444;28;20033;-84
2021/05/01 00:17:38;;;;;;;19.30;16.98;;;10.70;1.00;;;;;;5029559;28;20026;-83
2021/05/01 00:20:08;;;;;;;18.27;16.35;;;11.10;1.00;;;;;;5029017;28;20032;-83
2021/05/01 00:22:48;;;;;;;19.88;16.38;;;10.70;1.00;;;;;;5029535;28;20021;-83
2021/05/01 00:25:15;;;;;;;23.50;17.15;;;10.50;1.00;;;;;;5028044;28;20076;-83
2021/05/01 00:27:51;;;;;;;19.02;16.52;;;10.50;1.00;;;;;;5030066;28;20489;-83
2021/05/01 00:30:20;;;;;;;19.75;17.00;;;10.50;1.00;;;;;;5031567;28;20064;-84
2021/05/01 00:32:46;;;;;;;22.58;18.27;;;10.50;1.00;;;;;;5029378;28;20041;-83
2021/05/01 00:35:14;;;;;;;19.40;17.33;;;10.50;1.00;;;;;;5029302;28;20079;-83
2021/05/01 00:37:56;;;;;;;17.85;15.90;;;10.40;1.00;;;;;;5031113;28;20029;-83
2021/05/01 00:40:22;;;;;;;18.50;16.40;;;10.30;1.00;;;;;;5033549;28;20099;-83
2021/05/01 00:42:52;;;;;;;17.95;15.70;;;10.30;1.00;;;;;;5017434;28;20537;-84
2021/05/01 00:45:31;;;;;;;19.55;16.85;;;10.30;1.00;;;;;;5031385;28;20017;-83
2021/05/01 00:47:56;;;;;;;17.38;15.32;;;10.40;1.00;;;;;;5034270;28;20041;-83
2021/05/01 00:50:22;;;;;;;18.88;15.68;;;10.40;1.00;;;;;;5033435;28;20394;-83
2021/05/01 00:52:48;;;;;;;20.20;17.33;;;10.70;1.00;;;;;;5033454;28;20033;-83
2021/05/01 00:55:14;;;;;;;19.30;16.67;;;10.30;1.00;;;;;;5033944;28;20029;-83
2021/05/01 00:57:41;;;;;;;20.58;16.77;;;10.40;1.00;;;;;;5032481;28;20121;-83
2021/05/01 01:00:31;;;;;;;21.08;18.27;;;10.30;1.00;;;;;;5034694;28;20048;-81
2021/05/01 01:02:57;;;;;;;19.30;17.05;;;10.30;1.00;;;;;;5033735;28;20030;-82
2021/05/01 01:05:24;;;;;;;19.35;17.25;;;10.20;1.00;;;;;;5033199;28;20574;-82
2021/05/01 01:07:50;;;;;;;18.63;16.63;;;10.20;1.00;;;;;;5032404;28;20144;-84
2021/05/01 01:10:16;;;;;;;20.42;16.83;;;10.30;1.00;;;;;;5030794;28;20112;-83
2021/05/01 01:12:41;;;;;;;21.10;18.17;;;10.20;1.00;;;;;;5032792;28;20485;-83
2021/05/01 01:15:08;;;;;;;22.60;17.98;;;10.20;1.00;;;;;;5034280;28;20797;-83
2021/05/01 01:17:33;;;;;;;20.83;17.63;;;10.10;1.00;;;;;;5031754;28;20026;-83
2021/05/01 01:19:59;;;;;;;21.58;18.23;;;10.20;1.00;;;;;;5033149;28;20079;-82
2021/05/01 01:22:25;;;;;;;24.23;19.05;;;10.30;1.00;;;;;;5032211;28;20026;-83
2021/05/01 01:24:50;;;;;;;20.25;17.05;;;10.20;1.00;;;;;;5030868;28;20549;-84
2021/05/01 01:27:17;;;;;;;22.85;17.58;;;10.20;1.00;;;;;;5034247;28;20559;-84
2021/05/01 01:29:43;;;;;;;19.83;16.83;;;10.30;1.00;;;;;;5032548;28;20037;-83
2021/05/01 01:32:12;;;;;;;20.45;17.52;;;10.30;1.00;;;;;;5031654;28;20130;-83
2021/05/01 01:34:44;;;;;;;20.27;17.63;;;10.40;1.00;;;;;;5030843;28;20033;-83
2021/05/01 01:37:10;;;;;;;19.65;17.63;;;10.30;1.00;;;;;;5030789;28;20033;-84
2021/05/01 01:39:37;;;;;;;18.40;16.40;;;10.20;1.00;;;;;;5032061;28;20122;-83
2021/05/01 01:42:03;;;;;;;20.92;17.83;;;10.30;1.00;;;;;;5033773;28;20033;-84
2021/05/01 01:44:28;;;;;;;21.13;17.17;;;10.40;1.00;;;;;;5032059;28;20485;-83
2021/05/01 01:46:54;;;;;;;20.70;17.65;;;10.40;1.00;;;;;;5031673;28;20021;-82
2021/05/01 01:49:19;;;;;;;20.65;18.08;;;10.40;1.00;;;;;;5031616;28;20383;-83
2021/05/01 01:51:45;;;;;;;19.98;17.00;;;10.40;1.00;;;;;;5032262;28;20033;-83
2021/05/01 01:54:11;;;;;;;20.92;17.58;;;10.40;1.00;;;;;;5033746;28;20030;-83
2021/05/01 01:56:37;;;;;;;19.90;16.95;;;10.40;1.00;;;;;;5031747;28;20022;-83
2021/05/01 01:59:05;;;;;;;20.85;17.92;;;10.60;1.00;;;;;;5031593;28;20064;-83
2021/05/01 02:01:32;;;;;;;20.83;17.80;;;10.30;1.00;;;;;;5030253;28;20075;-83
2021/05/01 02:03:57;;;;;;;21.25;18.40;;;10.20;1.00;;;;;;5032897;28;20104;-83
2021/05/01 02:06:23;;;;;;;20.60;18.17;;;10.20;1.00;;;;;;5033015;28;20451;-83
2021/05/01 02:08:48;;;;;;;21.52;18.65;;;10.20;1.00;;;;;;5032131;28;20497;-84
2021/05/01 02:11:14;;;;;;;20.13;17.33;;;10.20;1.00;;;;;;5031108;28;20032;-84
2021/05/01 02:13:39;;;;;;;19.27;16.92;;;10.10;1.00;;;;;;5031292;28;20033;-82
2021/05/01 02:16:05;;;;;;;19.80;17.35;;;10.00;1.00;;;;;;5031062;28;20083;-84
2021/05/01 02:18:31;;;;;;;19.08;17.13;;;9.90;1.00;;;;;;5031927;28;20038;-83
2021/05/01 02:20:57;;;;;;;18.75;16.65;;;9.90;1.00;;;;;;5033018;28;20021;-83
2021/05/01 02:23:22;;;;;;;18.52;16.50;;;9.90;1.00;;;;;;5030780;28;20131;-83
2021/05/01 02:25:48;;;;;;;20.02;16.70;;;9.80;1.00;;;;;;5031460;28;20022;-83
2021/05/01 02:28:16;;;;;;;19.05;15.70;;;10.20;1.00;;;;;;5031285;28;20045;-83
2021/05/01 02:30:41;;;;;;;18.35;16.33;;;9.90;1.00;;;;;;5030736;28;20026;-83
2021/05/01 02:33:07;;;;;;;19.23;17.02;;;10.00;1.00;;;;;;5033211;28;20171;-83
2021/05/01 02:35:34;;;;;;;21.85;17.35;;;10.00;1.00;;;;;;5031015;28;20088;-83
2021/05/01 02:38:00;;;;;;;19.90;17.77;;;10.10;1.00;;;;;;5030887;28;20025;-82
2021/05/01 02:40:31;;;;;;;19.38;17.27;;;10.00;1.00;;;;;;5031323;28;20017;-84
2021/05/01 02:42:57;;;;;;;20.10;17.00;;;10.10;1.00;;;;;;5029237;28;20076;-83
2021/05/01 02:45:23;;;;;;;17.00;14.98;;;10.30;1.00;;;;;;5031872;28;20115;-83
2021/05/01 02:47:49;;;;;;;17.52;15.23;;;10.10;1.00;;;;;;5031561;28;20106;-83
2021/05/01 02:50:16;;;;;;;16.23;14.50;;;10.20;1.00;;;;;;5031012;28;20523;-83
2021/05/01 02:52:41;;;;;;;14.90;13.15;;;10.50;1.00;;;;;;5030738;28;20029;-82
2021/05/01 02:55:09;;;;;;;15.48;12.80;;;10.20;1.00;;;;;;5030513;28;20037;-83
2021/05/01 02:57:35;;;;;;;15.57;12.77;;;10.20;1.00;;;;;;5030143;28;20055;-83
2021/05/01 03:00:03;;;;;;;15.63;14.02;;;10.20;1.00;;;;;;5032484;28;20032;-83
2021/05/01 03:02:30;;;;;;;15.13;13.55;;;10.10;1.00;;;;;;5029957;28;20033;-83
2021/05/01 03:04:56;;;;;;;16.27;14.63;;;10.10;1.00;;;;;;5030632;28;20033;-83
2021/05/01 03:07:26;;;;;;;16.73;14.60;;;10.20;1.00;;;;;;5029574;28;20468;-82
2021/05/01 03:09:52;;;;;;;15.10;13.32;;;10.20;1.00;;;;;;5014855;28;20026;-83
2021/05/01 03:12:18;;;;;;;18.10;13.90;;;10.20;1.00;;;;;;5031498;28;20468;-83
2021/05/01 03:14:46;;;;;;;15.32;13.73;;;10.20;1.00;;;;;;5030200;28;20030;-83
2021/05/01 03:17:13;;;;;;;16.80;15.00;;;10.20;1.00;;;;;;5030600;28;20056;-83
2021/05/01 03:19:39;;;;;;;15.98;14.32;;;10.20;1.00;;;;;;5030235;28;20033;-83
2021/05/01 03:22:05;;;;;;;17.60;15.77;;;10.30;1.00;;;;;;5030754;28;20083;-84
2021/05/01 03:24:31;;;;;;;18.65;14.70;;;10.10;1.00;;;;;;5030979;28;20060;-83
2021/05/01 03:26:57;;;;;;;15.52;13.93;;;10.10;1.00;;;;;;5031025;28;20057;-84
2021/05/01 03:29:23;;;;;;;16.30;14.60;;;10.10;1.00;;;;;;5030045;28;20057;-83
2021/05/01 03:31:49;;;;;;;16.10;14.43;;;10.10;1.00;;;;;;5030272;28;20102;-83
2021/05/01 03:34:14;;;;;;;16.63;14.23;;;9.90;1.00;;;;;;5030143;28;20052;-83
2021/05/01 03:36:40;;;;;;;18.27;15.20;;;9.90;1.00;;;;;;5029815;28;20513;-82
2021/05/01 03:39:06;;;;;;;19.48;16.40;;;10.00;1.00;;;;;;5032544;28;20048;-83
2021/05/01 03:41:32;;;;;;;19.05;16.73;;;10.00;1.00;;;;;;5029195;28;20508;-83
2021/05/01 03:43:57;;;;;;;19.90;17.67;;;9.90;1.00;;;;;;5029599;28;20111;-83
2021/05/01 03:46:23;;;;;;;18.45;16.33;;;9.90;1.00;;;;;;5030383;28;20025;-84
2021/05/01 03:48:48;;;;;;;19.58;16.48;;;9.90;1.00;;;;;;5030190;28;20469;-83
2021/05/01 03:51:14;;;;;;;19.55;16.50;;;10.00;1.00;;;;;;5031684;28;20026;-83
2021/05/01 03:53:40;;;;;;;18.63;16.30;;;10.00;1.00;;;;;;5030199;28;20029;-83
2021/05/01 03:56:05;;;;;;;20.40;16.85;;;10.00;1.00;;;;;;5029886;28;20029;-83
2021/05/01 03:58:31;;;;;;;20.45;17.02;;;10.00;1.00;;;;;;5029558;28;20038;-83
2021/05/01 04:00:57;;;;;;;18.25;16.33;;;10.00;1.00;;;;;;5028358;28;20406;-84
2021/05/01 04:03:22;;;;;;;20.30;17.60;;;10.20;1.00;;;;;;5031151;28;20080;-83
2021/05/01 04:05:48;;;;;;;19.48;17.20;;;10.00;1.00;;;;;;5029100;28;20021;-83
2021/05/01 04:08:13;;;;;;;19.73;16.85;;;10.00;1.00;;;;;;5029619;28;20116;-83
2021/05/01 04:10:39;;;;;;;20.63;17.20;;;9.90;1.00;;;;;;5029182;28;20401;-82
2021/05/01 04:13:05;;;;;;;22.08;18.38;;;10.00;1.00;;;;;;5031531;28;20109;-83
2021/05/01 04:15:30;;;;;;;21.10;18.40;;;10.00;1.00;;;;;;5034258;28;20025;-84
2021/05/01 04:17:56;;;;;;;24.17;17.98;;;10.00;1.00;;;;;;5034834;28;20036;-83
2021/05/01 04:20:22;;;;;;;21.65;17.98;;;9.90;1.00;;;;;;5033398;28;20728;-82
2021/05/01 04:22:48;;;;;;;25.75;18.25;;;9.90;1.00;;;;;;5033645;28;20132;-84
2021/05/01 04:25:14;;;;;;;21.30;17.65;;;9.90;1.00;;;;;;5033387;28;20041;-83
2021/05/01 04:27:40;;;;;;;21.02;17.75;;;10.10;1.00;;;;;;5033215;28;24480;-83
2021/05/01 04:30:07;;;;;;;22.13;18.10;;;9.90;1.00;;;;;;5035210;28;20147;-83
2021/05/01 04:32:32;;;;;;;22.42;18.02;;;9.80;1.00;;;;;;5033306;28;20065;-83
2021/05/01 04:34:58;;;;;;;24.00;19.27;;;9.80;1.00;;;;;;5033238;28;20061;-82
2021/05/01 04:37:24;;;;;;;22.67;19.20;;;9.80;1.00;;;;;;5033098;28;20851;-84
2021/05/01 04:39:49;;;;;;;24.33;19.45;;;9.70;1.00;;;;;;5032084;28;20562;-83
2021/05/01 04:42:15;;;;;;;22.75;18.42;;;9.70;1.00;;;;;;5035069;28;20026;-83
2021/05/01 04:44:41;;;;;;;22.55;19.10;;;9.60;1.00;;;;;;5032913;28;20072;-83
2021/05/01 04:47:06;;;;;;;24.80;19.17;;;9.60;1.00;;;;;;5033121;28;20065;-82
2021/05/01 04:49:32;;;;;;;22.55;18.60;;;9.80;1.00;;;;;;5033114;28;20049;-83
2021/05/01 04:52:00;;;;;;;21.73;18.25;;;9.70;1.00;;;;;;5033036;28;20034;-83
2021/05/01 04:54:25;;;;;;;21.05;18.05;;;9.60;1.00;;;;;;5033792;28;20452;-83
2021/05/01 04:56:51;;;;;;;24.48;19.58;;;9.70;1.00;;;;;;5033493;28;20049;-83
2021/05/01 04:59:16;;;;;;;24.80;19.80;;;9.90;1.00;;;;;;5032340;28;20041;-83
2021/05/01 05:01:42;;;;;;;24.23;19.35;;;10.10;1.00;;;;;;5032718;28;20026;-83
2021/05/01 05:04:07;;;;;;;24.80;19.33;;;9.80;1.00;;;;;;5031885;28;20509;-83
2021/05/01 05:06:33;;;;;;;25.05;19.33;;;9.90;1.00;;;;;;5033451;28;20048;-83
2021/05/01 05:09:00;;;;;;;24.98;19.55;;;9.90;1.00;;;;;;5033836;28;20083;-83
2021/05/01 05:11:25;;;;;;;21.98;18.27;;;9.90;1.00;;;;;;5032152;28;20083;-83
2021/05/01 05:13:51;;;;;;;20.77;18.02;;;9.80;1.00;;;;;;5032838;28;20378;-83
2021/05/01 05:16:16;;;;;;;20.45;18.00;;;9.80;1.00;;;;;;5032572;28;20436;-83
2021/05/01 05:18:42;;;;;;;22.15;18.95;;;9.90;1.00;;;;;;5032295;28;20080;-83
2021/05/01 05:21:08;;;;;;;20.48;17.52;;;10.00;1.00;;;;;;5033591;28;20037;-82
2021/05/01 05:23:33;;;;;;;22.48;18.83;;;9.90;1.00;;;;;;5031104;28;20053;-83
2021/05/01 05:25:59;;;;;;;23.27;19.10;;;10.00;1.00;;;;;;5031750;28;20525;-83
2021/05/01 05:28:24;;;;;;;20.95;17.55;;;10.00;1.00;;;;;;5032572;28;20036;-83
2021/05/01 05:30:50;;;;;;;22.13;18.38;;;9.90;1.00;;;;;;5031679;28;20056;-83
2021/05/01 05:33:16;;;;;;;21.45;18.10;;;10.00;1.00;;;;;;5033992;28;20408;-83
2021/05/01 05:35:42;;;;;;;21.45;17.92;;;9.90;1.00;;;;;;5030462;28;20466;-82
2021/05/01 05:38:07;;;;;;;23.23;19.05;;;10.20;1.00;;;;;;5031684;28;20041;-83
2021/05/01 05:40:34;;;;;;;19.02;16.80;;;10.00;1.00;;;;;;5031815;28;20112;-83
2021/05/01 05:43:00;;;;;;;20.13;17.67;;;10.10;1.00;;;;;;5032221;28;20060;-83
2021/05/01 05:45:29;;;;;;;23.90;19.35;;;10.10;1.00;;;;;;5033363;28;20458;-83
2021/05/01 05:47:55;;;;;;;23.08;19.85;;;10.00;1.00;;;;;;5034141;28;20018;-83
2021/05/01 05:50:21;;;;;;;25.65;20.02;;;10.10;1.00;;;;;;5031919;28;20025;-83
2021/05/01 05:52:47;;;;;;;23.55;20.42;;;10.00;1.00;;;;;;5030080;28;20409;-83
2021/05/01 05:55:14;;;;;;;21.60;19.25;;;10.10;1.00;;;;;;5030141;28;20022;-83
2021/05/01 05:57:44;;;;;;;22.65;19.02;;;10.10;1.00;;;;;;5031890;28;20120;-83
2021/05/01 06:00:11;;;;;;;21.83;18.58;;;10.10;1.00;;;;;;5032717;28;20112;-83
2021/05/01 06:02:37;;;;;;;20.90;18.17;;;10.20;1.00;;;;;;5031614;28;20045;-83
2021/05/01 06:05:10;;;;;;;21.20;18.33;;;10.10;1.00;;;;;;5031534;28;20120;-85
2021/05/01 06:07:51;;;;;;;21.48;18.08;;;10.10;1.00;;;;;;5031112;28;20021;-84
2021/05/01 06:10:17;;;;;;;21.67;18.90;;;10.10;1.00;;;;;;5030542;28;20032;-86
2021/05/01 06:12:43;;;;;;;21.50;18.70;;;10.10;1.00;;;;;;5031742;28;20044;-86
2021/05/01 06:15:14;;;;;;;20.45;18.25;;;10.20;1.00;;;;;;5032824;28;20032;-83
2021/05/01 06:17:41;;;;;;;22.13;18.98;;;10.00;1.00;;;;;;5028187;28;20486;-85
2021/05/01 06:20:09;;;;;;;21.52;18.08;;;9.90;1.00;;;;;;5030626;28;20052;-83
2021/05/01 06:22:35;;;;;;;21.38;19.08;;;9.80;1.00;;;;;;5030379;28;20025;-83
2021/05/01 06:25:04;;;;;;;21.65;18.85;;;9.80;1.00;;;;;;5029859;28;20410;-83
2021/05/01 06:27:29;;;;;;;18.80;16.80;;;10.00;1.00;;;;;;5032242;28;20018;-83
2021/05/01 06:29:55;;;;;;;18.73;16.67;;;10.10;1.00;;;;;;5031872;28;20405;-83
2021/05/01 06:32:21;;;;;;;19.80;17.20;;;10.10;1.00;;;;;;5030998;28;20053;-83
2021/05/01 06:34:53;;;;;;;21.13;18.33;;;10.30;1.00;;;;;;5030502;28;20029;-82
2021/05/01 06:37:21;;;;;;;20.58;17.10;;;10.10;1.00;;;;;;5030183;28;20112;-84
2021/05/01 06:39:49;;;;;;;19.33;16.52;;;10.10;1.00;;;;;;5031181;28;20042;-83
2021/05/01 06:42:18;;;;;;;18.67;15.70;;;10.40;1.00;;;;;;5033083;28;20034;-82
2021/05/01 06:45:04;;;;;;;19.65;15.98;;;10.00;1.00;;;;;;5030775;28;20150;-84
2021/05/01 06:47:31;;;;;;;17.38;15.23;;;10.00;1.00;;;;;;5030836;28;20112;-83
2021/05/01 06:50:09;;;;;;;18.33;16.40;;;9.80;1.00;;;;;;5030113;28;20033;-84
2021/05/01 06:52:43;;;;;;;18.98;17.00;;;9.90;1.00;;;;;;5029910;28;20119;-82
2021/05/01 06:55:10;;;;;;;22.13;17.67;;;10.00;1.00;;;;;;5030616;28;20044;-84
2021/05/01 06:57:37;;;;;;;20.65;17.52;;;10.00;1.00;;;;;;5030875;28;20057;-84
2021/05/01 07:00:08;;;;;;;19.52;16.83;;;10.00;1.00;;;;;;5032601;28;20438;-84
2021/05/01 07:02:40;;;;;;;19.15;16.80;;;10.00;1.00;;;;;;5030884;28;20029;-84
2021/05/01 07:05:11;;;;;;;19.35;16.63;;;10.00;1.00;;;;;;5028299;28;20432;-84
2021/05/01 07:07:36;;;;;;;21.80;17.75;;;10.10;1.00;;;;;;5031270;28;20252;-84
2021/05/01 07:10:07;;;;;;;18.80;16.45;;;10.60;1.00;;;;;;5030915;28;20494;-84
2021/05/01 07:12:33;;;;;;;19.20;16.40;;;10.20;1.00;;;;;;5031166;28;20032;-84
2021/05/01 07:15:04;;;;;;;17.77;15.77;;;10.20;1.00;;;;;;5032461;28;20378;-84
2021/05/01 07:17:30;;;;;;;19.17;16.83;;;10.20;1.00;;;;;;5028839;28;20363;-84
2021/05/01 07:20:02;;;;;;;19.38;16.48;;;10.10;1.00;;;;;;5029883;28;20095;-82
2021/05/01 07:22:28;;;;;;;19.15;15.73;;;10.20;1.00;;;;;;5030445;28;20025;-82
2021/05/01 07:24:55;;;;;;;18.35;15.63;;;10.20;1.00;;;;;;5030595;28;20041;-85
2021/05/01 07:27:46;;;;;;;20.13;15.95;;;10.10;1.00;;;;;;5032311;28;20104;-83
2021/05/01 07:30:14;;;;;;;17.33;15.18;;;10.30;1.00;;;;;;5030481;28;20041;-84
2021/05/01 07:32:41;;;;;;;20.23;16.20;;;10.10;1.00;;;;;;5029299;28;20391;-84
2021/05/01 07:35:08;;;;;;;22.65;16.92;;;10.30;1.00;;;;;;5028001;28;20045;-83
2021/05/01 07:37:40;;;;;;;20.05;16.73;;;10.30;1.00;;;;;;5029880;28;20021;-84
2021/05/01 07:40:09;;;;;;;15.85;13.80;;;10.40;1.00;;;;;;5029570;28;20036;-84
2021/05/01 07:42:45;;;;;;;16.23;14.38;;;10.20;1.00;;;;;;5030411;28;20075;-84
2021/05/01 07:45:12;;;;;;;15.95;14.25;;;10.40;1.00;;;;;;5031443;28;20037;-85
2021/05/01 07:47:39;;;;;;;16.17;14.18;;;10.50;1.00;;;;;;5027881;28;20509;-84
2021/05/01 07:50:06;;;;;;;15.73;14.13;;;10.30;1.00;;;;;;5029158;28;20493;-84
2021/05/01 07:52:35;;;;;;;15.95;14.13;;;10.30;1.00;;;;;;5029780;28;20018;-83
2021/05/01 07:55:01;;;;;;;19.50;15.18;;;10.60;1.00;;;;;;5028732;28;20036;-84
2021/05/01 07:57:27;;;;;;;17.45;15.15;;;10.50;1.00;;;;;;5031302;28;20112;-85
2021/05/01 07:59:53;;;;;;;16.95;15.15;;;10.40;1.00;;;;;;5031031;28;20402;-85
2021/05/01 08:02:19;;;;;;;16.20;14.45;;;10.40;1.00;;;;;;5029525;28;20024;-85
2021/05/01 08:04:44;;;;;;;16.83;14.68;;;10.40;1.00;;;;;;5029329;28;20072;-84
2021/05/01 08:07:10;;;;;;;14.77;12.75;;;10.50;1.00;;;;;;5029782;28;20018;-84
2021/05/01 08:09:36;;;;;;;13.45;12.05;;;10.50;1.00;;;;;;5029907;28;20118;-84
2021/05/01 08:12:02;;;;;;;13.23;11.85;;;10.40;1.00;;;;;;5031507;28;20036;-85
2021/05/01 08:14:27;;;;;;;14.32;12.25;;;10.30;1.00;;;;;;5029577;28;20033;-84
2021/05/01 08:16:53;;;;;;;12.68;11.38;;;10.40;1.00;;;;;;5027877;28;20029;-84
2021/05/01 08:19:19;;;;;;;12.85;11.55;;;10.50;1.00;;;;;;5028679;28;20375;-84
2021/05/01 08:21:44;;;;;;;12.38;11.07;;;10.50;1.00;;;;;;5030240;28;20049;-84
2021/05/01 08:24:10;;;;;;;13.77;10.40;;;10.50;1.00;;;;;;5030883;28;20055;-83
2021/05/01 08:26:36;;;;;;;12.10;10.88;;;10.60;1.00;;;;;;5029119;28;20436;-83
2021/05/01 08:29:02;;;;;;;11.23;10.02;;;10.70;1.00;;;;;;5029982;28;20029;-83
2021/05/01 08:31:28;;;;;;;12.98;10.60;;;10.50;1.00;;;;;;5028701;28;20073;-83
2021/05/01 08:33:54;;;;;;;11.75;10.52;;;10.60;1.00;;;;;;5028300;28;20065;-83
2021/05/01 08:36:19;;;;;;;12.07;10.75;;;10.70;1.00;;;;;;5030556;28;20036;-83
2021/05/01 08:38:45;;;;;;;11.50;10.18;;;10.60;1.00;;;;;;5027363;28;20513;-83
2021/05/01 08:41:11;;;;;;;11.43;10.23;;;10.60;1.00;;;;;;5029042;28;20041;-84
2021/05/01 08:43:36;;;;;;;12.30;10.90;;;10.70;1.00;;;;;;5030115;28;20471;-84
2021/05/01 08:46:12;;;;;;;12.70;11.32;;;10.70;1.00;;;;;;5028502;28;20025;-83
2021/05/01 08:48:38;;;;;;;12.05;10.85;;;10.80;1.00;;;;;;5029962;28;20432;-84
2021/05/01 08:51:04;;;;;;;13.52;12.13;;;10.70;1.00;;;;;;5030615;28;20029;-84
2021/05/01 08:53:30;;;;;;;12.57;11.27;;;10.70;1.00;;;;;;5028640;28;20041;-85
2021/05/01 08:55:56;;;;;;;14.85;12.60;;;10.60;1.00;;;;;;5029495;28;20093;-85
2021/05/01 08:58:22;;;;;;;15.25;12.57;;;10.70;1.00;;;;;;5030917;28;20033;-85
2021/05/01 09:00:49;;;;;;;15.90;13.10;;;10.60;1.00;;;;;;5033045;28;20036;-85
2021/05/01 09:03:21;;;;;;;14.15;12.65;;;10.50;1.00;;;;;;5035065;28;20076;-83
2021/05/01 09:05:48;;;;;;;13.63;12.23;;;10.80;1.00;;;;;;5033715;28;20039;-85
2021/05/01 09:08:15;;;;;;;11.95;10.68;;;10.60;1.00;;;;;;5032995;28;20029;-85
2021/05/01 09:10:45;;;;;;;13.63;11.57;;;10.60;1.00;;;;;;5031605;28;20033;-85
2021/05/01 09:13:23;;;;;;;14.68;11.60;;;10.50;1.00;;;;;;5032435;28;20075;-85
2021/05/01 09:16:02;;;;;;;16.35;13.35;;;10.60;1.00;;;;;;5016676;28;20042;-85
2021/05/01 09:18:41;;;;;;;15.45;12.40;;;10.80;1.00;;;;;;5031592;28;20513;-85
2021/05/01 09:21:16;;;;;;;12.88;11.45;;;10.70;1.00;;;;;;5032110;28;20033;-85
2021/05/01 09:23:41;;;;;;;13.30;11.20;;;10.70;1.00;;;;;;5031000;28;20036;-85
2021/05/01 09:26:07;;;;;;;11.52;10.32;;;10.70;1.00;;;;;;5032804;28;20042;-85
2021/05/01 09:28:51;;;;;;;10.75;9.57;;;10.80;1.00;;;;;;5030955;28;20052;-84
2021/05/01 09:31:18;;;;;;;10.82;9.70;;;11.10;1.00;;;;;;5029558;28;20033;-86
2021/05/01 09:33:47;;;;;;;10.65;9.30;;;10.70;1.00;;;;;;5032605;28;20034;-86
2021/05/01 09:36:22;;;;;;;11.88;9.80;;;10.80;1.00;;;;;;5034791;28;20068;-86
2021/05/01 09:39:10;;;;;;;10.35;9.25;;;10.80;1.00;;;;;;5030713;28;20372;-86
2021/05/01 09:41:41;;;;;;;11.95;9.15;;;10.90;1.00;;;;;;5031271;28;20048;-86
2021/05/01 09:44:07;;;;;;;11.93;9.30;;;10.80;1.00;;;;;;5032245;28;20037;-86
2021/05/01 09:46:42;;;;;;;9.73;8.63;;;10.70;1.00;;;;;;5032225;28;20029;-86
2021/05/01 09:49:38;;;;;;;10.15;9.13;;;10.80;1.00;;;;;;5031892;28;20033;-84
2021/05/01 09:52:12;;;;;;;8.90;8.00;;;11.00;1.00;;;;;;5015842;28;20399;-82
2021/05/01 09:54:46;;;;;;;10.18;8.25;;;11.00;1.00;;;;;;5032913;28;20033;-84
2021/05/01 09:57:15;;;;;;;8.80;8.00;;;11.00;1.00;;;;;;5034165;28;20067;-84
2021/05/01 09:59:46;;;;;;;8.60;7.78;;;11.00;1.00;;;;;;5031035;28;20525;-84
2021/05/01 10:02:17;;;;;;;9.63;8.63;;;11.00;1.00;;;;;;5032130;28;20025;-83
2021/05/01 10:05:02;;;;;;;10.23;9.13;;;11.00;1.00;;;;;;5031788;28;20018;-84
2021/05/01 10:07:28;;;;;;;11.65;10.40;;;10.80;1.00;;;;;;5032846;28;20025;-85
2021/05/01 10:09:55;;;;;;;10.95;9.85;;;10.80;1.00;;;;;;5031287;28;20018;-85
2021/05/01 10:12:22;;;;;;;11.68;10.48;;;11.10;1.00;;;;;;5033248;28;20080;-85
2021/05/01 10:14:52;;;;;;;9.57;8.63;;;11.00;1.00;;;;;;5032134;28;20052;-85
2021/05/01 10:17:27;;;;;;;9.02;8.13;;;11.00;1.00;;;;;;5033123;28;20040;-85
2021/05/01 10:19:59;;;;;;;9.07;8.20;;;11.20;1.00;;;;;;5030984;28;20044;-86
2021/05/01 10:22:44;;;;;;;11.18;9.75;;;10.70;1.00;;;;;;5031747;28;20104;-86
2021/05/01 10:25:29;;;;;;;11.20;9.88;;;10.80;1.00;;;;;;5031511;28;20033;-86
2021/05/01 10:28:06;;;;;;;11.85;10.65;;;11.00;1.00;;;;;;5016024;28;20022;-85
2021/05/01 10:30:37;;;;;;;11.27;10.07;;;10.90;1.00;;;;;;5032331;28;20401;-85
2021/05/01 10:35:39;;;;;;;10.63;9.52;;;11.10;1.00;;;;;;5031716;28;20042;-91
2021/05/01 10:38:07;;;;;;;9.35;8.38;;;11.00;1.00;;;;;;5031506;28;20052;-89
2021/05/01 10:40:47;;;;;;;10.38;9.27;;;11.10;1.00;;;;;;5031648;28;20112;-91
2021/05/01 10:43:21;;;;;;;9.30;8.27;;;11.20;1.00;;;;;;5031587;28;20028;-87
2021/05/01 10:45:52;;;;;;;10.88;9.63;;;11.70;1.00;;;;;;5032063;28;20029;-87
2021/05/01 10:48:18;;;;;;;10.23;9.15;;;11.70;1.00;;;;;;5029496;28;20026;-89
2021/05/01 10:50:44;;;;;;;9.80;8.82;;;11.30;1.00;;;;;;5030176;28;20014;-88
2021/05/01 10:53:19;;;;;;;8.80;7.95;;;11.60;1.00;;;;;;5031882;28;20067;-90
2021/05/01 10:55:47;;;;;;;9.07;8.20;;;11.90;1.00;;;;;;5031585;28;20405;-87
2021/05/01 10:58:29;;;;;;;9.57;8.55;;;12.20;1.00;;;;;;5031355;28;20170;-87
2021/05/01 11:00:55;;;;;;;9.50;8.57;;;11.60;1.00;;;;;;5016838;28;20014;-88
2021/05/01 11:03:22;;;;;;;9.82;8.80;;;11.70;1.00;;;;;;5033130;28;20044;-92
2021/05/01 11:05:49;;;;;;;9.70;8.70;;;11.70;1.00;;;;;;5032315;28;20029;-87
2021/05/01 11:08:50;;;;;;;9.00;8.10;;;11.60;1.00;;;;;;5029391;28;20113;-87
2021/05/01 11:11:17;;;;;;;8.77;7.97;;;11.70;1.00;;;;;;5028359;28;20040;-87
2021/05/01 11:13:48;;;;;;;9.15;8.20;;;11.90;1.00;;;;;;5029521;28;20397;-88
2021/05/01 11:16:17;;;;;;;9.27;7.93;;;11.70;1.00;;;;;;5030970;28;20517;-87
2021/05/01 11:18:44;;;;;;;8.75;7.85;;;12.30;1.00;;;;;;5031909;28;20064;-91
2021/05/01 11:21:11;;;;;;;8.73;7.13;;;12.20;1.00;;;;;;5033357;28;20029;-94
2021/05/01 11:23:38;;;;;;;18.08;14.82;;;12.00;1.00;;;;;;5029388;28;20033;-94
2021/05/01 11:26:08;;;;;;;10.20;8.93;;;12.50;1.00;;;;;;5030502;28;20046;-90
2021/05/01 11:28:38;;;;;;;6.80;6.10;;;12.60;1.00;;;;;;5030260;28;20025;-90
2021/05/01 11:31:04;;;;;;;7.88;6.22;;;12.20;1.00;;;;;;5029536;28;20030;-91
2021/05/01 11:33:32;;;;;;;5.85;5.28;;;12.60;1.00;;;;;;5030857;28;20129;-84
2021/05/01 11:35:58;;;;;;;6.60;6.00;;;12.10;1.00;;;;;;5032147;28;20032;-91
2021/05/01 11:38:32;;;;;;;6.50;5.90;;;12.10;1.00;;;;;;5025224;28;20428;-92
2021/05/01 11:40:58;;;;;;;7.03;6.32;;;12.20;1.00;;;;;;5029103;28;20037;-92
2021/05/01 11:43:29;;;;;;;9.57;7.72;;;12.10;1.00;;;;;;5029458;28;20017;-90
2021/05/01 11:46:13;;;;;;;9.23;7.70;;;12.20;1.00;;;;;;5031126;28;20029;-85
2021/05/01 11:48:49;;;;;;;6.28;5.68;;;11.80;1.00;;;;;;5028858;28;20117;-86
2021/05/01 11:51:17;;;;;;;9.02;7.95;;;11.70;1.00;;;;;;5032607;28;20083;-85
2021/05/01 11:53:48;;;;;;;7.75;6.15;;;11.90;1.00;;;;;;5031831;28;20071;-86
2021/05/01 11:56:21;;;;;;;7.13;6.18;;;11.90;1.00;;;;;;5030085;28;20048;-85
2021/05/01 11:58:48;;;;;;;7.95;7.15;;;11.90;1.00;;;;;;5030887;28;20102;-85
2021/05/01 12:01:25;;;;;;;5.47;4.97;;;11.70;1.00;;;;;;5030378;28;20032;-86
2021/05/01 12:03:55;;;;;;;5.95;5.43;;;11.40;1.00;;;;;;5013266;28;20120;-85
2021/05/01 12:06:28;;;;;;;6.35;5.75;;;11.20;1.00;;;;;;5028737;28;20033;-85
2021/05/01 12:09:03;;;;;;;11.32;8.88;;;11.40;1.00;;;;;;5030651;28;20033;-86
2021/05/01 12:11:31;;;;;;;6.80;6.10;;;11.50;1.00;;;;;;5030482;28;20029;-86
2021/05/01 12:13:59;;;;;;;8.82;7.93;;;11.70;1.00;;;;;;5029717;28;20089;-86
2021/05/01 12:16:25;;;;;;;7.85;7.07;;;11.80;1.00;;;;;;5030695;28;20053;-85
2021/05/01 12:18:53;;;;;;;6.80;6.20;;;12.00;1.00;;;;;;5029938;28;20065;-85
2021/05/01 12:21:19;;;;;;;6.80;6.20;;;11.60;1.00;;;;;;5030778;28;20022;-86
2021/05/01 12:23:48;;;;;;;6.65;5.97;;;11.70;1.00;;;;;;5026644;28;20554;-86
2021/05/01 12:26:32;;;;;;;6.88;6.18;;;11.60;1.00;;;;;;5028221;28;20041;-85
2021/05/01 12:29:21;;;;;;;6.97;6.30;;;11.70;1.00;;;;;;5029934;28;20052;-85
2021/05/01 12:32:05;;;;;;;8.98;7.68;;;11.30;1.00;;;;;;5030126;28;20048;-86
2021/05/01 12:34:50;;;;;;;10.85;9.75;;;11.40;1.00;;;;;;5032010;28;20034;-86
2021/05/01 12:37:20;;;;;;;8.82;7.40;;;11.40;1.00;;;;;;5033310;28;20092;-86
2021/05/01 12:39:47;;;;;;;9.68;8.05;;;11.40;1.00;;;;;;5033535;28;20439;-89
2021/05/01 12:42:26;;;;;;;8.77;6.78;;;12.00;1.00;;;;;;5036561;28;20057;-87
2021/05/01 12:44:52;;;;;;;7.43;6.72;;;12.10;1.00;;;;;;5032770;28;20453;-86
2021/05/01 12:47:36;;;;;;;6.32;5.72;;;11.50;1.00;;;;;;5032106;28;20053;-86
2021/05/01 12:50:30;;;;;;;5.80;5.20;;;11.60;1.00;;;;;;5033274;28;20104;-86
2021/05/01 12:53:27;;;;;;;5.40;4.90;;;12.00;1.00;;;;;;5033151;28;20034;-86
2021/05/01 12:56:23;;;;;;;5.30;4.68;;;11.90;1.00;;;;;;5031589;28;20037;-87